Vermilion Bay, Canada
Current Conditions -  °F | °C
As of 4:00 AM on Friday 24 Oct 2014 (Local Time) from CYHD Reporting Station
Overcast Overcast  
Wind Chill: 44°   Ceiling: 14000
Heat Index: 48°   Visibility: 9mi
Dew Point: 41°   Wind: 10mph
Humidity: 76%   Direction: 190°S
Pressure: 29.75"   Gusts: NA
Location:  49.85°N, 93.38°W
Report Text: CYHD 240900Z AUTO 19009KT 9SM BKN140 OVC160 09/05 A2975 RMK SLP088
Loading
Personal Weather Stations






























Interactive Weather Map
Tropical Storm Tracking
New forecast layout! Learn more

10-Day Weather Forecast

Advertisements
Track Severe Weather on mobile